Terminal Aerodrome Forecast
Issued by NWS

Home | Current Version | Previous Version | Text Only | Print | Product List | Glossary On
Versions: 1 2 3 4 5 6 7 8 9 10 11 12 13 14 15 16 17
000
FTUS45 KVEF 060110 AAA
TAFBIH
TAF AMD
KBIH 060110Z 0601/0624 35009G15KT P6SM BKN150
     FM060700 34006KT P6SM SKC
     FM061800 16006KT P6SM FEW120
     FM062000 17012G20KT P6SM SCT100 BKN150=

USA.gov is the U.S. government's official web portal to all federal, state and local government web resources and services.